Time;durP1;ratioP1;P1;durP2;ratioP2;P2;SDS_P1;SDS_P2;PMS_P1;PMS_P2;Temp;Humidity;BMP_temperature;BMP_pressure;BME280_temperature;BME280_humidity;BME280_pressure;Samples;Min_cycle;Max_cycle;Signal;HPM_P1;HPM_P2
2023/12/27 00:02:02;;;;;;;3.37;1.50;;;4.30;99.90;;;;;;4996758;28;20280;-82
2023/12/27 00:04:28;;;;;;;4.17;1.47;;;4.20;99.90;;;;;;5014686;28;20182;-82
2023/12/27 00:06:55;;;;;;;3.53;1.53;;;4.20;99.90;;;;;;5014697;28;20237;-82
2023/12/27 00:09:21;;;;;;;3.67;1.60;;;4.10;99.90;;;;;;4996612;28;20218;-82
2023/12/27 00:11:46;;;;;;;8.07;1.60;;;4.00;99.90;;;;;;4996776;28;20249;-82
2023/12/27 00:14:12;;;;;;;5.90;1.67;;;3.90;99.90;;;;;;5014282;28;20182;-82
2023/12/27 00:16:37;;;;;;;5.87;1.80;;;3.90;99.90;;;;;;5014572;28;20637;-83
2023/12/27 00:19:03;;;;;;;5.10;1.77;;;3.90;99.90;;;;;;4996524;28;20221;-82
2023/12/27 00:21:28;;;;;;;4.97;1.87;;;3.80;99.90;;;;;;5013643;28;20203;-82
2023/12/27 00:23:55;;;;;;;6.23;1.70;;;3.70;99.90;;;;;;5014029;28;20189;-78
2023/12/27 00:26:20;;;;;;;4.40;1.83;;;3.70;99.90;;;;;;5014333;28;20191;-82
2023/12/27 00:28:46;;;;;;;4.50;1.93;;;3.70;99.90;;;;;;4996801;28;20263;-83
2023/12/27 00:31:12;;;;;;;4.63;1.90;;;3.60;99.90;;;;;;5014251;28;20234;-83
2023/12/27 00:33:37;;;;;;;5.33;2.03;;;3.70;99.90;;;;;;4996604;28;20696;-80
2023/12/27 00:36:04;;;;;;;5.37;2.10;;;3.70;99.90;;;;;;5014398;28;20178;-82
2023/12/27 00:38:29;;;;;;;5.53;1.73;;;3.70;99.90;;;;;;5013822;28;20173;-82
2023/12/27 00:40:55;;;;;;;4.13;2.10;;;3.70;99.90;;;;;;5014119;28;20205;-82
2023/12/27 00:43:21;;;;;;;4.27;1.83;;;3.70;99.90;;;;;;5014275;28;20584;-82
2023/12/27 00:45:46;;;;;;;5.00;1.60;;;3.70;99.90;;;;;;5013919;28;20182;-82
2023/12/27 00:48:12;;;;;;;3.80;1.70;;;3.70;99.90;;;;;;4996902;28;20186;-82
2023/12/27 00:50:37;;;;;;;5.30;1.83;;;3.60;99.90;;;;;;4996520;28;20693;-82
2023/12/27 00:53:03;;;;;;;3.40;1.93;;;3.50;99.90;;;;;;4996556;28;20179;-82
2023/12/27 00:55:29;;;;;;;3.43;1.70;;;3.50;99.90;;;;;;5014171;28;20219;-82
2023/12/27 00:57:54;;;;;;;6.90;2.00;;;3.50;99.90;;;;;;5014207;28;20184;-83
2023/12/27 01:00:20;;;;;;;5.37;1.90;;;3.70;99.90;;;;;;5013586;28;20248;-82
2023/12/27 01:02:45;;;;;;;3.53;1.80;;;3.70;99.90;;;;;;4996416;28;20563;-82
2023/12/27 01:05:11;;;;;;;6.00;1.87;;;3.70;99.90;;;;;;4997800;28;20177;-82
2023/12/27 01:07:37;;;;;;;5.37;2.07;;;3.70;99.90;;;;;;5022505;28;20196;-83
2023/12/27 01:10:03;;;;;;;3.87;1.90;;;3.70;99.90;;;;;;4995513;28;20294;-81
2023/12/27 01:12:29;;;;;;;5.70;2.10;;;3.60;99.90;;;;;;4995971;28;20171;-82
2023/12/27 01:14:55;;;;;;;3.53;1.67;;;3.60;99.90;;;;;;4996203;28;20229;-82
2023/12/27 01:17:20;;;;;;;4.67;1.80;;;3.50;99.90;;;;;;4996553;28;20186;-81
2023/12/27 01:19:46;;;;;;;4.93;2.00;;;3.50;99.90;;;;;;4995645;28;20204;-82
2023/12/27 01:22:11;;;;;;;3.67;2.30;;;3.50;99.90;;;;;;5027548;28;20214;-82
2023/12/27 01:24:37;;;;;;;4.83;2.10;;;3.50;99.90;;;;;;5033565;28;20270;-82
2023/12/27 01:27:02;;;;;;;4.57;1.90;;;3.50;99.90;;;;;;5004359;28;20559;-82
2023/12/27 01:29:28;;;;;;;5.80;2.00;;;3.50;99.90;;;;;;4995898;28;20584;-82
2023/12/27 01:31:53;;;;;;;4.50;1.80;;;3.50;99.90;;;;;;5015665;28;20178;-82
2023/12/27 01:34:19;;;;;;;4.83;2.00;;;3.50;99.90;;;;;;4999694;28;20321;-82
2023/12/27 01:36:45;;;;;;;6.57;1.93;;;3.60;99.90;;;;;;5011307;28;20194;-81
2023/12/27 01:39:10;;;;;;;4.80;1.97;;;3.70;99.90;;;;;;5036912;28;20579;-82
2023/12/27 01:41:36;;;;;;;4.40;1.73;;;3.70;99.90;;;;;;5036920;28;20719;-82
2023/12/27 01:44:02;;;;;;;6.33;1.83;;;3.70;99.90;;;;;;5019412;28;20174;-83
2023/12/27 01:46:28;;;;;;;4.63;1.80;;;3.70;99.90;;;;;;5028963;28;20175;-81
2023/12/27 01:48:54;;;;;;;6.33;1.83;;;3.70;99.90;;;;;;5016883;28;20670;-83
2023/12/27 01:51:20;;;;;;;7.43;1.73;;;3.60;99.90;;;;;;5021306;28;20257;-83
2023/12/27 01:53:47;;;;;;;4.73;1.90;;;3.60;99.90;;;;;;5037240;28;20258;-82
2023/12/27 01:56:13;;;;;;;5.63;1.90;;;3.60;99.90;;;;;;5037428;28;20179;-82
2023/12/27 01:58:38;;;;;;;6.47;2.10;;;3.60;99.90;;;;;;5036337;28;20171;-80
2023/12/27 02:01:04;;;;;;;5.73;1.77;;;3.60;99.90;;;;;;5018999;28;20179;-82
2023/12/27 02:03:30;;;;;;;4.37;1.90;;;3.50;99.90;;;;;;5028912;28;20170;-82
2023/12/27 02:05:56;;;;;;;6.27;2.00;;;3.50;99.90;;;;;;4999928;28;20258;-82
2023/12/27 02:08:23;;;;;;;4.80;1.60;;;3.50;99.90;;;;;;5016677;28;20172;-82
2023/12/27 02:10:48;;;;;;;6.27;1.80;;;3.50;99.90;;;;;;5016507;28;20235;-82
2023/12/27 02:13:14;;;;;;;6.43;2.00;;;3.50;99.90;;;;;;4999286;28;20173;-82
2023/12/27 02:15:40;;;;;;;4.80;1.90;;;3.50;99.90;;;;;;4999099;28;20194;-80
2023/12/27 02:18:06;;;;;;;4.07;1.90;;;3.50;99.90;;;;;;5016524;28;20171;-81
2023/12/27 02:20:33;;;;;;;7.37;2.00;;;3.40;99.90;;;;;;5016460;28;20218;-81
2023/12/27 02:23:01;;;;;;;4.50;1.50;;;3.40;99.90;;;;;;5017866;28;20175;-81
2023/12/27 02:25:27;;;;;;;4.43;2.00;;;3.40;99.90;;;;;;4998442;28;20233;-81
2023/12/27 02:27:53;;;;;;;3.50;1.60;;;3.40;99.90;;;;;;5016383;28;20189;-81
2023/12/27 02:30:20;;;;;;;4.90;2.03;;;3.30;99.90;;;;;;5016141;28;20243;-79
2023/12/27 02:32:46;;;;;;;5.13;1.73;;;3.30;99.90;;;;;;5016477;28;20221;-81
2023/12/27 02:35:13;;;;;;;5.47;2.00;;;3.30;99.90;;;;;;4998835;28;20175;-81
2023/12/27 02:37:38;;;;;;;4.07;2.00;;;3.30;99.90;;;;;;4998858;28;20172;-81
2023/12/27 02:40:04;;;;;;;7.13;2.13;;;3.30;99.90;;;;;;5015908;28;20343;-81
2023/12/27 02:42:30;;;;;;;4.47;1.70;;;3.30;99.90;;;;;;5015189;28;20180;-81
2023/12/27 02:44:56;;;;;;;4.00;1.63;;;3.30;99.90;;;;;;5015795;28;20178;-81
2023/12/27 02:47:21;;;;;;;5.57;1.70;;;3.40;99.90;;;;;;4998588;28;20711;-82
2023/12/27 02:49:47;;;;;;;6.30;2.07;;;3.30;99.90;;;;;;4998183;28;20213;-81
2023/12/27 02:52:12;;;;;;;6.63;2.20;;;3.30;99.90;;;;;;5015927;28;20270;-82
2023/12/27 02:54:38;;;;;;;3.63;1.70;;;3.40;99.90;;;;;;5016259;28;20226;-82
2023/12/27 02:57:04;;;;;;;3.67;1.67;;;3.40;99.90;;;;;;5003140;28;20254;-82
2023/12/27 02:59:29;;;;;;;5.30;2.03;;;3.50;99.90;;;;;;5017811;28;20252;-82
2023/12/27 03:01:55;;;;;;;5.27;1.57;;;3.50;99.90;;;;;;5017650;28;20185;-82
2023/12/27 03:04:20;;;;;;;3.40;1.73;;;3.60;99.90;;;;;;5035639;28;20543;-81
2023/12/27 03:06:46;;;;;;;3.63;1.80;;;3.60;99.90;;;;;;5035433;28;20179;-82
2023/12/27 03:09:12;;;;;;;2.90;1.60;;;3.60;99.90;;;;;;5065819;22;20221;-81
2023/12/27 03:11:38;;;;;;;5.53;1.80;;;3.50;99.90;;;;;;5073592;28;20246;-81
2023/12/27 03:14:04;;;;;;;3.57;2.00;;;3.40;99.90;;;;;;5094928;28;20248;-81
2023/12/27 03:16:29;;;;;;;2.10;1.40;;;3.40;99.90;;;;;;5064684;28;20176;-81
2023/12/27 03:18:56;;;;;;;3.97;1.73;;;3.30;99.90;;;;;;5056856;28;20213;-81
2023/12/27 03:21:21;;;;;;;5.97;1.70;;;3.20;99.90;;;;;;5038237;28;20299;-81
2023/12/27 03:23:48;;;;;;;3.80;1.67;;;3.10;99.90;;;;;;5054803;28;20261;-82
2023/12/27 03:26:13;;;;;;;7.20;2.17;;;3.10;99.90;;;;;;5054794;28;20170;-80
2023/12/27 03:28:39;;;;;;;4.03;2.00;;;3.10;99.90;;;;;;5036889;28;20242;-81
2023/12/27 03:31:04;;;;;;;6.33;1.70;;;3.10;99.90;;;;;;5036238;28;20746;-81
2023/12/27 03:33:30;;;;;;;4.07;1.87;;;3.10;99.90;;;;;;5036921;28;20167;-81
2023/12/27 03:35:56;;;;;;;6.27;2.53;;;3.10;99.90;;;;;;5054876;28;20175;-81
2023/12/27 03:38:21;;;;;;;6.70;2.20;;;3.20;99.90;;;;;;5036851;28;20208;-82
2023/12/27 03:40:47;;;;;;;5.50;2.07;;;3.20;99.90;;;;;;5036460;28;20193;-81
2023/12/27 03:43:12;;;;;;;4.37;1.90;;;3.20;99.90;;;;;;5054028;28;20182;-82
2023/12/27 03:45:38;;;;;;;7.53;2.13;;;3.20;99.90;;;;;;5054016;28;20207;-81
2023/12/27 03:48:04;;;;;;;3.77;1.80;;;3.20;99.90;;;;;;5054193;28;20228;-81
2023/12/27 03:50:29;;;;;;;4.40;1.90;;;3.20;99.90;;;;;;5053796;28;20210;-81
2023/12/27 03:52:55;;;;;;;7.17;2.27;;;3.20;99.90;;;;;;5054095;28;20182;-82
2023/12/27 03:55:24;;;;;;;5.83;2.10;;;3.20;99.90;;;;;;5054227;28;20169;-82
2023/12/27 03:57:50;;;;;;;5.47;1.90;;;3.10;99.90;;;;;;5054106;28;20174;-81
2023/12/27 04:00:16;;;;;;;3.10;1.67;;;3.10;99.90;;;;;;5053706;28;20232;-81
2023/12/27 04:02:42;;;;;;;6.20;1.77;;;3.10;99.90;;;;;;5036055;28;20210;-81
2023/12/27 04:05:08;;;;;;;2.93;1.70;;;3.10;99.90;;;;;;5055792;28;20276;-82
2023/12/27 04:07:34;;;;;;;5.70;2.00;;;3.10;99.90;;;;;;5073777;28;20173;-81
2023/12/27 04:10:00;;;;;;;5.20;2.20;;;3.10;99.90;;;;;;5055075;28;20579;-81
2023/12/27 04:12:25;;;;;;;5.20;2.00;;;3.20;99.90;;;;;;5056092;28;20173;-81
2023/12/27 04:14:51;;;;;;;6.03;1.70;;;3.30;99.90;;;;;;5074162;28;20390;-81
2023/12/27 04:17:16;;;;;;;4.50;1.50;;;3.40;99.90;;;;;;5073540;28;20260;-81
2023/12/27 04:19:42;;;;;;;4.00;1.60;;;3.50;99.90;;;;;;5055984;28;20218;-81
2023/12/27 04:22:08;;;;;;;2.53;1.40;;;3.40;99.90;;;;;;5074134;28;20173;-80
2023/12/27 04:24:34;;;;;;;4.70;1.77;;;3.30;99.90;;;;;;5055679;28;20178;-81
2023/12/27 04:26:59;;;;;;;4.17;1.50;;;3.20;99.90;;;;;;5056133;28;20634;-81
2023/12/27 04:29:25;;;;;;;4.70;1.83;;;3.00;99.90;;;;;;5073464;28;20240;-81
2023/12/27 04:31:50;;;;;;;3.57;1.53;;;2.90;99.90;;;;;;5056072;28;20186;-81
2023/12/27 04:34:16;;;;;;;3.10;1.70;;;2.70;99.90;;;;;;5055933;28;20176;-80
2023/12/27 04:36:42;;;;;;;6.40;1.60;;;2.70;99.90;;;;;;5074097;28;20175;-81
2023/12/27 04:39:07;;;;;;;4.37;2.00;;;2.70;99.90;;;;;;5073309;28;20567;-81
2023/12/27 04:41:33;;;;;;;2.83;1.73;;;2.70;99.90;;;;;;5055784;28;20228;-81
2023/12/27 04:43:59;;;;;;;4.07;1.63;;;2.70;99.90;;;;;;5056013;28;20222;-81
2023/12/27 04:46:25;;;;;;;2.77;1.50;;;2.80;99.90;;;;;;5073772;28;20185;-81
2023/12/27 04:48:50;;;;;;;2.90;1.67;;;2.80;99.90;;;;;;5055341;28;20182;-81
2023/12/27 04:51:16;;;;;;;2.63;1.43;;;2.90;99.90;;;;;;5073448;28;20189;-81
2023/12/27 04:53:43;;;;;;;4.20;1.70;;;2.80;99.90;;;;;;5055885;28;20645;-80
2023/12/27 04:56:09;;;;;;;2.77;1.40;;;2.80;99.90;;;;;;5073534;28;20178;-81
2023/12/27 04:58:36;;;;;;;3.37;1.40;;;2.70;99.90;;;;;;5055269;28;20306;-82
2023/12/27 05:01:06;;;;;;;5.20;1.77;;;2.60;99.90;;;;;;5072867;28;20218;-81
2023/12/27 05:03:37;;;;;;;4.63;1.60;;;2.50;99.90;;;;;;5055583;28;20178;-81
2023/12/27 05:06:11;;;;;;;3.27;1.40;;;2.50;99.90;;;;;;5074351;28;20145;-81
2023/12/27 05:08:40;;;;;;;5.37;1.50;;;2.60;99.90;;;;;;5077327;28;20204;-81
2023/12/27 05:11:21;;;;;;;3.27;1.60;;;2.80;99.90;;;;;;5076818;28;20220;-81
2023/12/27 05:13:47;;;;;;;4.40;1.53;;;2.90;99.90;;;;;;5077316;28;20199;-81
2023/12/27 05:16:14;;;;;;;2.87;1.50;;;2.90;99.90;;;;;;5077119;28;20230;-82
2023/12/27 05:18:41;;;;;;;2.53;1.60;;;2.80;99.90;;;;;;5077088;28;20201;-81
2023/12/27 05:21:08;;;;;;;5.30;1.70;;;2.70;99.90;;;;;;5058356;28;20230;-82
2023/12/27 05:23:33;;;;;;;4.33;1.60;;;2.60;99.90;;;;;;5058415;28;20174;-81
2023/12/27 05:25:59;;;;;;;1.80;1.43;;;2.40;99.90;;;;;;5055551;28;20173;-80
2023/12/27 05:28:25;;;;;;;4.27;1.43;;;2.40;99.90;;;;;;5038917;28;20174;-80
2023/12/27 05:30:50;;;;;;;3.27;1.73;;;2.40;99.90;;;;;;5057027;28;20206;-81
2023/12/27 05:33:16;;;;;;;5.23;1.70;;;2.30;99.90;;;;;;5039028;28;20196;-81
2023/12/27 05:35:41;;;;;;;3.30;1.70;;;2.30;99.90;;;;;;5056721;28;20182;-81
2023/12/27 05:38:07;;;;;;;3.87;1.70;;;2.30;99.90;;;;;;5063708;28;20181;-81
2023/12/27 05:40:33;;;;;;;2.97;1.20;;;2.30;99.90;;;;;;5059264;28;20197;-81
2023/12/27 05:42:58;;;;;;;3.23;1.40;;;2.50;99.90;;;;;;5058723;28;20174;-81
2023/12/27 05:45:24;;;;;;;1.73;1.40;;;2.60;99.90;;;;;;5076718;28;20169;-81
2023/12/27 05:47:50;;;;;;;2.80;1.40;;;2.70;99.90;;;;;;5058439;28;20177;-81
2023/12/27 05:50:15;;;;;;;3.53;1.60;;;2.70;99.90;;;;;;5058110;28;20240;-81
2023/12/27 05:52:41;;;;;;;4.20;1.20;;;2.70;99.90;;;;;;5076400;28;20204;-81
2023/12/27 05:55:07;;;;;;;4.07;1.33;;;2.50;99.90;;;;;;5076405;28;20169;-81
2023/12/27 05:57:33;;;;;;;3.50;1.40;;;2.30;99.90;;;;;;5076252;28;20184;-81
2023/12/27 05:59:58;;;;;;;2.13;1.30;;;2.20;99.90;;;;;;5057208;28;20563;-84
2023/12/27 06:02:24;;;;;;;6.53;1.60;;;2.10;99.90;;;;;;5057993;28;20640;-83
2023/12/27 06:04:49;;;;;;;6.73;1.83;;;2.00;99.90;;;;;;5075902;28;20519;-82
2023/12/27 06:07:15;;;;;;;5.03;1.70;;;1.90;99.90;;;;;;5057922;28;20318;-84
2023/12/27 06:09:41;;;;;;;7.37;1.90;;;1.80;99.90;;;;;;5057296;28;20216;-80
2023/12/27 06:12:09;;;;;;;4.87;1.60;;;1.80;99.90;;;;;;5058221;28;20181;-82
2023/12/27 06:14:35;;;;;;;4.73;2.03;;;1.90;99.90;;;;;;5075555;28;20173;-85
2023/12/27 06:17:01;;;;;;;6.07;1.73;;;1.90;99.90;;;;;;5057174;28;20169;-82
2023/12/27 06:19:35;;;;;;;6.13;1.83;;;2.00;99.90;;;;;;5057420;28;20210;-82
2023/12/27 06:22:01;;;;;;;2.77;1.70;;;2.10;99.90;;;;;;5075779;28;20168;-80
2023/12/27 06:24:26;;;;;;;2.47;1.70;;;2.20;99.90;;;;;;5076159;28;20206;-80
2023/12/27 06:26:52;;;;;;;4.43;1.90;;;2.30;99.90;;;;;;5058068;28;20646;-77
2023/12/27 06:29:18;;;;;;;3.00;1.70;;;2.30;99.90;;;;;;5075793;28;20211;-81
2023/12/27 06:31:43;;;;;;;3.93;1.80;;;2.30;99.90;;;;;;5075308;28;20700;-81
2023/12/27 06:34:09;;;;;;;2.77;1.80;;;2.30;99.90;;;;;;5075886;28;20173;-80
2023/12/27 06:36:35;;;;;;;4.40;1.57;;;2.20;99.90;;;;;;5076830;28;20180;-80
2023/12/27 06:39:00;;;;;;;5.87;1.73;;;2.20;99.90;;;;;;5058055;28;20172;-80
2023/12/27 06:41:27;;;;;;;4.97;1.70;;;2.10;99.90;;;;;;5074404;28;20272;-83
2023/12/27 06:43:53;;;;;;;3.73;1.57;;;2.10;99.90;;;;;;5074954;28;20188;-82
2023/12/27 06:46:19;;;;;;;4.00;1.63;;;2.10;99.90;;;;;;5074816;28;20173;-81
2023/12/27 06:48:44;;;;;;;3.77;1.83;;;2.20;99.90;;;;;;5075081;28;20719;-82
2023/12/27 06:51:11;;;;;;;4.60;1.73;;;2.20;99.90;;;;;;5056417;28;20211;-82
2023/12/27 06:53:37;;;;;;;4.83;2.10;;;2.20;99.90;;;;;;5056687;28;20165;-81
2023/12/27 06:56:03;;;;;;;4.73;2.13;;;2.10;99.90;;;;;;5075061;28;20184;-82
2023/12/27 06:58:28;;;;;;;5.40;2.33;;;2.10;99.90;;;;;;5057702;28;20188;-82
2023/12/27 07:00:54;;;;;;;8.07;2.97;;;2.20;99.90;;;;;;5074947;28;20193;-81
2023/12/27 07:03:20;;;;;;;8.33;2.80;;;2.00;99.90;;;;;;5075132;28;20172;-79
2023/12/27 07:05:45;;;;;;;4.20;2.47;;;2.50;99.90;;;;;;5056946;28;20651;-81
2023/12/27 07:08:11;;;;;;;3.90;2.10;;;2.80;99.90;;;;;;5058003;28;20181;-83
2023/12/27 07:10:36;;;;;;;6.10;2.10;;;2.60;99.90;;;;;;5057274;28;20244;-81
2023/12/27 07:13:02;;;;;;;4.50;2.40;;;2.30;99.90;;;;;;5074171;28;20671;-82
2023/12/27 07:15:29;;;;;;;6.17;2.43;;;2.00;99.90;;;;;;5074628;28;20165;-80
2023/12/27 07:17:54;;;;;;;3.43;2.37;;;1.80;99.90;;;;;;5075364;28;20195;-79
2023/12/27 07:20:21;;;;;;;2.87;1.83;;;1.70;99.90;;;;;;5074484;28;20677;-83
2023/12/27 07:22:47;;;;;;;4.33;2.43;;;1.70;99.90;;;;;;5074058;28;20258;-82
2023/12/27 07:25:12;;;;;;;8.40;2.40;;;1.70;99.90;;;;;;5073887;28;20180;-82
2023/12/27 07:27:38;;;;;;;4.63;2.33;;;1.60;99.90;;;;;;5055644;28;20191;-81
2023/12/27 07:30:04;;;;;;;5.73;2.50;;;1.60;99.90;;;;;;5073268;28;20212;-84
2023/12/27 07:32:30;;;;;;;6.33;2.77;;;1.60;99.90;;;;;;5073590;28;20230;-82
2023/12/27 07:34:57;;;;;;;6.00;2.40;;;1.60;99.90;;;;;;5073850;28;20173;-86
2023/12/27 07:37:26;;;;;;;3.77;2.40;;;1.70;99.90;;;;;;5055593;28;20183;-81
2023/12/27 07:39:53;;;;;;;3.97;2.23;;;1.70;99.90;;;;;;5055171;28;20695;-80
2023/12/27 07:42:19;;;;;;;7.50;2.77;;;1.70;99.90;;;;;;5074129;28;20176;-80
2023/12/27 07:44:44;;;;;;;5.47;2.23;;;1.80;99.90;;;;;;5056427;28;20544;-80
2023/12/27 07:47:10;;;;;;;6.63;2.30;;;1.80;99.90;;;;;;5056171;28;20537;-83
2023/12/27 07:49:36;;;;;;;4.43;2.17;;;1.90;99.90;;;;;;5073669;28;20248;-76
2023/12/27 07:52:01;;;;;;;3.10;1.90;;;1.80;99.90;;;;;;5055788;28;20173;-77
2023/12/27 07:54:27;;;;;;;3.50;1.90;;;1.90;99.90;;;;;;5073576;28;20176;-79
2023/12/27 07:56:52;;;;;;;3.40;1.80;;;2.00;99.90;;;;;;5074157;28;20219;-79
2023/12/27 07:59:18;;;;;;;3.60;1.73;;;2.00;99.90;;;;;;5056035;28;20180;-80
2023/12/27 08:01:45;;;;;;;5.50;2.20;;;2.00;99.90;;;;;;5055279;28;20184;-80
2023/12/27 08:04:10;;;;;;;5.13;2.17;;;2.10;99.90;;;;;;5055501;28;20176;-79
2023/12/27 08:06:36;;;;;;;4.63;1.60;;;2.20;99.90;;;;;;5042961;28;20676;-79
2023/12/27 08:09:02;;;;;;;4.13;2.00;;;2.30;99.90;;;;;;5053572;28;20248;-80
2023/12/27 08:11:27;;;;;;;4.47;1.80;;;2.40;99.90;;;;;;5063495;28;20577;-76
2023/12/27 08:13:53;;;;;;;7.20;3.40;;;2.60;99.90;;;;;;5073953;28;20177;-80
2023/12/27 08:16:18;;;;;;;5.60;3.17;;;2.60;99.90;;;;;;5065795;28;20187;-80
2023/12/27 08:18:44;;;;;;;7.70;3.67;;;2.60;99.90;;;;;;5066664;28;20212;-80
2023/12/27 08:21:09;;;;;;;5.23;3.53;;;2.60;99.90;;;;;;5073672;28;20232;-80
2023/12/27 08:23:38;;;;;;;5.73;3.07;;;2.50;99.90;;;;;;5073368;28;20549;-81
2023/12/27 08:26:07;;;;;;;4.63;2.67;;;2.50;99.90;;;;;;5063339;28;20315;-80
2023/12/27 08:28:34;;;;;;;5.47;2.60;;;2.50;99.90;;;;;;5035964;28;20197;-79
2023/12/27 08:31:00;;;;;;;4.13;2.47;;;2.50;99.90;;;;;;5035495;28;20212;-80
2023/12/27 08:33:25;;;;;;;3.93;2.60;;;2.60;99.90;;;;;;5035770;28;20181;-80
2023/12/27 08:35:51;;;;;;;7.90;2.30;;;2.70;99.90;;;;;;5035508;28;20174;-82
2023/12/27 08:38:16;;;;;;;5.87;2.50;;;2.80;99.90;;;;;;5043941;28;20187;-82
2023/12/27 08:40:42;;;;;;;3.93;2.20;;;2.90;99.90;;;;;;5057085;28;20206;-79
2023/12/27 08:43:08;;;;;;;4.93;2.60;;;2.80;99.90;;;;;;5072571;28;20174;-84
2023/12/27 08:45:34;;;;;;;7.63;3.00;;;2.80;99.90;;;;;;5052496;28;20204;-82
2023/12/27 08:48:00;;;;;;;3.60;2.80;;;2.90;99.90;;;;;;5052620;28;20185;-81
2023/12/27 08:50:25;;;;;;;6.37;2.77;;;3.00;99.90;;;;;;5052609;28;20214;-83
2023/12/27 08:52:51;;;;;;;2.80;2.30;;;3.10;99.90;;;;;;5069932;28;20169;-77
2023/12/27 08:55:16;;;;;;;3.77;2.50;;;3.20;99.90;;;;;;5034522;28;20169;-76
2023/12/27 08:57:42;;;;;;;6.77;2.20;;;3.20;99.90;;;;;;5052270;28;20185;-80
2023/12/27 09:00:10;;;;;;;5.37;2.47;;;3.30;99.90;;;;;;5063960;28;20197;-76
2023/12/27 09:02:37;;;;;;;4.80;2.50;;;3.40;99.90;;;;;;5052632;28;20254;-77
2023/12/27 09:05:04;;;;;;;7.07;2.93;;;3.50;99.90;;;;;;5053054;28;20200;-77
2023/12/27 09:07:31;;;;;;;13.27;6.13;;;3.60;99.90;;;;;;5072574;28;20188;-80
2023/12/27 09:09:57;;;;;;;6.50;3.77;;;3.80;99.90;;;;;;5054752;28;20227;-77
2023/12/27 09:12:22;;;;;;;6.70;3.77;;;4.20;99.90;;;;;;5054999;28;20170;-79
2023/12/27 09:14:48;;;;;;;6.20;3.67;;;4.30;99.90;;;;;;5122405;22;20189;-79
2023/12/27 09:17:15;;;;;;;6.37;3.80;;;4.40;99.90;;;;;;5032816;28;20200;-80
2023/12/27 09:19:41;;;;;;;5.40;3.67;;;4.50;99.90;;;;;;5032853;28;20742;-80
2023/12/27 09:22:07;;;;;;;5.93;3.33;;;4.60;99.90;;;;;;5032975;28;20171;-79
2023/12/27 09:24:33;;;;;;;5.93;3.57;;;4.90;99.90;;;;;;5033091;28;20181;-79
2023/12/27 09:26:59;;;;;;;5.37;3.60;;;5.00;99.90;;;;;;4994993;28;20242;-79
2023/12/27 09:29:25;;;;;;;5.93;3.73;;;5.10;99.90;;;;;;4994898;28;20689;-80
2023/12/27 09:31:50;;;;;;;5.77;3.20;;;5.20;99.90;;;;;;4995144;28;20175;-82
2023/12/27 09:34:16;;;;;;;4.50;3.07;;;5.30;99.90;;;;;;5012924;28;20586;-82
2023/12/27 09:36:42;;;;;;;5.07;3.00;;;5.40;99.90;;;;;;4995494;28;20197;-81
2023/12/27 09:39:11;;;;;;;3.40;2.93;;;5.50;99.90;;;;;;5013167;28;20261;-81
2023/12/27 09:41:37;;;;;;;3.70;2.70;;;5.60;99.90;;;;;;4994965;28;20181;-77
2023/12/27 09:44:06;;;;;;;5.17;2.90;;;5.70;99.90;;;;;;5012815;28;20204;-80
2023/12/27 09:46:33;;;;;;;3.53;2.60;;;5.70;99.90;;;;;;5012363;28;20576;-80
2023/12/27 09:48:59;;;;;;;3.27;2.67;;;5.80;99.90;;;;;;4994882;28;20651;-80
2023/12/27 09:51:25;;;;;;;3.93;2.83;;;5.80;99.90;;;;;;5012620;28;20202;-80
2023/12/27 09:53:51;;;;;;;3.33;2.50;;;5.90;99.90;;;;;;5016847;28;20184;-81
2023/12/27 09:56:18;;;;;;;4.57;2.70;;;6.00;99.90;;;;;;5000029;28;20293;-82
2023/12/27 09:58:48;;;;;;;2.73;2.40;;;6.00;99.90;;;;;;4999530;28;20166;-82
2023/12/27 10:01:16;;;;;;;3.60;2.80;;;6.10;99.90;;;;;;4998251;28;20720;-82
2023/12/27 10:03:43;;;;;;;3.83;2.77;;;6.10;99.90;;;;;;4999084;28;20675;-80
2023/12/27 10:06:39;;;;;;;3.17;2.27;;;6.10;99.90;;;;;;4998435;28;20206;-80
2023/12/27 10:09:05;;;;;;;6.53;2.80;;;6.20;99.90;;;;;;5015832;28;20159;-80
2023/12/27 10:11:33;;;;;;;3.80;2.53;;;6.30;99.90;;;;;;5015392;28;20170;-80
2023/12/27 10:13:58;;;;;;;4.13;2.63;;;6.30;99.90;;;;;;5015623;28;20171;-82
2023/12/27 10:16:24;;;;;;;4.20;2.93;;;6.30;99.90;;;;;;4998487;28;20217;-81
2023/12/27 10:18:50;;;;;;;4.50;3.20;;;6.30;99.90;;;;;;4998568;28;20175;-80
2023/12/27 10:21:16;;;;;;;3.17;2.87;;;6.40;99.90;;;;;;5016313;28;20182;-81
2023/12/27 10:23:42;;;;;;;3.63;3.10;;;6.40;99.90;;;;;;4998229;28;20187;-83
2023/12/27 10:26:08;;;;;;;3.77;2.87;;;6.50;99.90;;;;;;4998576;28;20209;-81
2023/12/27 10:28:33;;;;;;;4.13;2.90;;;6.50;99.90;;;;;;5016111;28;20667;-80
2023/12/27 10:30:59;;;;;;;3.57;2.47;;;6.60;99.90;;;;;;5015431;28;20570;-80
2023/12/27 10:33:24;;;;;;;4.03;2.90;;;6.70;99.90;;;;;;5015945;28;20221;-80
2023/12/27 10:35:50;;;;;;;4.07;2.73;;;6.70;99.90;;;;;;4998866;28;20238;-80
2023/12/27 10:38:16;;;;;;;4.43;2.83;;;6.80;99.90;;;;;;4998742;28;20180;-80
2023/12/27 10:40:42;;;;;;;4.50;3.20;;;6.80;99.90;;;;;;4998016;28;20183;-82
2023/12/27 10:43:08;;;;;;;4.37;3.20;;;6.80;99.90;;;;;;4998537;28;20180;-79
2023/12/27 10:45:35;;;;;;;3.47;2.87;;;6.90;99.90;;;;;;4997865;28;20199;-81
2023/12/27 10:48:04;;;;;;;3.23;2.63;;;6.90;99.90;;;;;;4995239;28;20207;-82
2023/12/27 10:50:31;;;;;;;3.47;2.80;;;7.00;99.90;;;;;;5016149;28;20235;-82
2023/12/27 10:53:06;;;;;;;4.27;3.23;;;7.10;99.90;;;;;;5015673;28;20175;-81
2023/12/27 10:55:36;;;;;;;5.20;2.90;;;7.10;99.90;;;;;;4998158;28;20230;-81
2023/12/27 10:58:04;;;;;;;3.90;2.93;;;7.20;99.90;;;;;;4995664;28;20731;-82
2023/12/27 11:00:31;;;;;;;3.13;2.63;;;7.30;99.90;;;;;;5014486;28;20621;-80
2023/12/27 11:02:59;;;;;;;4.20;2.70;;;7.30;99.90;;;;;;5009925;28;20258;-79
2023/12/27 11:05:29;;;;;;;3.30;2.37;;;7.30;99.90;;;;;;4997681;28;20213;-78
2023/12/27 11:07:56;;;;;;;2.50;2.30;;;7.30;99.90;;;;;;5016352;28;20191;-78
2023/12/27 11:10:23;;;;;;;2.20;2.00;;;7.30;99.90;;;;;;5016468;28;20231;-84
2023/12/27 11:12:49;;;;;;;2.40;2.20;;;7.30;99.90;;;;;;5033782;28;20641;-79
2023/12/27 11:15:15;;;;;;;2.23;1.90;;;7.40;99.90;;;;;;5036588;28;20344;-81
2023/12/27 11:17:41;;;;;;;2.23;1.80;;;7.40;99.90;;;;;;5018244;28;20246;-80
2023/12/27 11:20:09;;;;;;;1.93;1.70;;;7.40;99.90;;;;;;5018686;28;20306;-81
2023/12/27 11:22:35;;;;;;;2.60;1.87;;;7.40;99.90;;;;;;5018816;28;20608;-80
2023/12/27 11:25:01;;;;;;;2.37;1.80;;;7.40;99.90;;;;;;5007519;28;20201;-81
2023/12/27 11:27:27;;;;;;;2.00;1.70;;;7.50;99.90;;;;;;4985846;28;20630;-80
2023/12/27 11:29:54;;;;;;;2.00;1.70;;;7.60;99.90;;;;;;4996462;28;20587;-80
2023/12/27 11:32:20;;;;;;;1.87;1.60;;;7.60;99.90;;;;;;4997258;28;20269;-80
2023/12/27 11:34:46;;;;;;;1.97;1.63;;;7.60;99.90;;;;;;5006691;28;20190;-80
2023/12/27 11:37:16;;;;;;;2.10;1.80;;;7.70;99.90;;;;;;5013923;28;20188;-80
2023/12/27 11:39:46;;;;;;;2.13;1.70;;;7.70;99.90;;;;;;5000719;28;20180;-79
2023/12/27 11:42:15;;;;;;;2.20;1.67;;;7.70;99.90;;;;;;5003365;28;20696;-80
2023/12/27 11:44:47;;;;;;;2.03;1.60;;;7.70;99.90;;;;;;5015121;28;20181;-79
2023/12/27 11:47:19;;;;;;;1.93;1.50;;;7.70;99.90;;;;;;5014514;28;20177;-82
2023/12/27 11:50:09;;;;;;;1.97;1.77;;;7.70;99.90;;;;;;4997494;28;20217;-84
2023/12/27 11:52:41;;;;;;;178.13;117.07;;;7.70;99.90;;;;;;4996421;28;20182;-80
2023/12/27 11:55:31;;;;;;;7.00;4.60;;;7.90;99.90;;;;;;5006827;28;20204;-81
2023/12/27 11:57:57;;;;;;;1.90;1.60;;;8.30;99.90;;;;;;4990838;28;20209;-80
2023/12/27 12:00:25;;;;;;;1.60;1.50;;;8.10;99.90;;;;;;5014429;28;20247;-80
2023/12/27 12:02:58;;;;;;;4.03;1.50;;;8.00;99.90;;;;;;5014281;28;20193;-80
2023/12/27 12:05:35;;;;;;;1.60;1.50;;;7.90;99.90;;;;;;5014458;28;20203;-81
2023/12/27 12:08:21;;;;;;;356.67;222.77;;;7.90;99.90;;;;;;5014427;28;20165;-81
2023/12/27 12:11:05;;;;;;;6.93;4.57;;;8.00;99.90;;;;;;5011993;28;20249;-81
2023/12/27 12:13:31;;;;;;;1.40;1.30;;;8.30;99.90;;;;;;5014628;28;20201;-81
2023/12/27 12:15:57;;;;;;;1.10;1.00;;;8.20;99.90;;;;;;5013242;28;20229;-81
2023/12/27 12:18:24;;;;;;;25.53;15.80;;;8.10;99.90;;;;;;4996693;28;20180;-81
2023/12/27 12:20:50;;;;;;;4.77;2.80;;;8.10;99.90;;;;;;4997499;28;20193;-81
2023/12/27 12:23:16;;;;;;;20.03;12.77;;;8.70;99.90;;;;;;5015326;28;20179;-82
2023/12/27 12:25:42;;;;;;;1.33;1.20;;;8.90;99.90;;;;;;4997575;28;20222;-81
2023/12/27 12:28:08;;;;;;;22.63;14.83;;;8.80;99.90;;;;;;4997123;28;20591;-80
2023/12/27 12:30:35;;;;;;;3.17;2.33;;;9.20;99.90;;;;;;4997221;28;20218;-80
2023/12/27 12:33:01;;;;;;;10.77;6.93;;;9.50;99.90;;;;;;5014784;28;20703;-79
2023/12/27 12:35:27;;;;;;;21.57;11.77;;;9.20;99.90;;;;;;5014109;28;20277;-81
2023/12/27 12:37:53;;;;;;;18.30;11.87;;;10.50;99.90;;;;;;4987405;28;20188;-81
2023/12/27 12:40:18;;;;;;;6.93;4.50;;;10.40;99.90;;;;;;5005170;28;20201;-82
2023/12/27 12:42:44;;;;;;;1.80;1.60;;;11.00;99.90;;;;;;5022334;28;20193;-81
2023/12/27 12:45:10;;;;;;;2.27;1.80;;;10.50;1.00;;;;;;5015455;28;20199;-79
2023/12/27 12:47:36;;;;;;;1.53;1.40;;;10.00;1.00;;;;;;5005242;28;20622;-79
2023/12/27 12:50:02;;;;;;;19.30;13.13;;;9.60;1.00;;;;;;4985350;28;20210;-79
2023/12/27 12:52:27;;;;;;;19.87;12.97;;;9.90;99.90;;;;;;4995792;28;20179;-78